sensor_id;sensor_type;location;lat;lon;timestamp;pressure;altitude;pressure_sealevel;temperature;humidity
14343;BME280;7255;53.596;9.960;2023-07-20T00:01:28;101001.16;;;14.70;nan
14343;BME280;7255;53.596;9.960;2023-07-20T00:03:55;100995.25;;;14.73;nan
14343;BME280;7255;53.596;9.960;2023-07-20T00:06:21;100985.41;;;14.84;nan
14343;BME280;7255;53.596;9.960;2023-07-20T00:08:47;100987.22;;;14.95;nan
14343;BME280;7255;53.596;9.960;2023-07-20T00:11:15;100990.16;;;14.94;nan
14343;BME280;7255;53.596;9.960;2023-07-20T00:13:41;100984.25;;;14.97;nan
14343;BME280;7255;53.596;9.960;2023-07-20T00:16:08;100994.41;;;15.07;nan
14343;BME280;7255;53.596;9.960;2023-07-20T00:18:34;100981.12;;;15.05;nan
14343;BME280;7255;53.596;9.960;2023-07-20T00:21:01;100981.63;;;15.02;nan
14343;BME280;7255;53.596;9.960;2023-07-20T00:23:27;100987.19;;;15.12;nan
14343;BME280;7255;53.596;9.960;2023-07-20T00:25:54;100974.22;;;15.14;nan
14343;BME280;7255;53.596;9.960;2023-07-20T00:28:21;100987.03;;;15.19;nan
14343;BME280;7255;53.596;9.960;2023-07-20T00:30:48;100984.88;;;15.21;nan
14343;BME280;7255;53.596;9.960;2023-07-20T00:33:16;100986.53;;;15.22;nan
14343;BME280;7255;53.596;9.960;2023-07-20T00:35:43;100985.69;;;15.21;nan
14343;BME280;7255;53.596;9.960;2023-07-20T00:38:09;100986.53;;;15.22;nan
14343;BME280;7255;53.596;9.960;2023-07-20T00:40:36;100991.94;;;15.22;nan
14343;BME280;7255;53.596;9.960;2023-07-20T00:43:03;100988.16;;;15.23;nan
14343;BME280;7255;53.596;9.960;2023-07-20T00:45:31;100990.28;;;15.21;nan
14343;BME280;7255;53.596;9.960;2023-07-20T00:47:59;100991.94;;;15.22;nan
14343;BME280;7255;53.596;9.960;2023-07-20T00:50:27;100993.72;;;15.16;nan
14343;BME280;7255;53.596;9.960;2023-07-20T00:52:54;100998.19;;;15.06;nan
14343;BME280;7255;53.596;9.960;2023-07-20T00:55:23;100993.63;;;14.89;nan
14343;BME280;7255;53.596;9.960;2023-07-20T00:57:50;100985.91;;;14.81;nan
14343;BME280;7255;53.596;9.960;2023-07-20T01:00:16;100977.72;;;14.76;nan
14343;BME280;7255;53.596;9.960;2023-07-20T01:02:44;100992.31;;;14.75;nan
14343;BME280;7255;53.596;9.960;2023-07-20T01:05:11;100991.00;;;14.60;nan
14343;BME280;7255;53.596;9.960;2023-07-20T01:07:43;100995.69;;;14.53;nan
14343;BME280;7255;53.596;9.960;2023-07-20T01:10:19;100989.78;;;14.39;nan
14343;BME280;7255;53.596;9.960;2023-07-20T01:12:51;100975.53;;;14.44;nan
14343;BME280;7255;53.596;9.960;2023-07-20T01:15:18;100985.38;;;14.50;nan
14343;BME280;7255;53.596;9.960;2023-07-20T01:17:46;100994.03;;;14.52;nan
14343;BME280;7255;53.596;9.960;2023-07-20T01:20:14;100991.94;;;14.54;nan
14343;BME280;7255;53.596;9.960;2023-07-20T01:22:57;100998.53;;;14.58;nan
14343;BME280;7255;53.596;9.960;2023-07-20T01:25:37;100993.25;;;14.52;nan
14343;BME280;7255;53.596;9.960;2023-07-20T01:28:24;100990.78;;;14.50;nan
14343;BME280;7255;53.596;9.960;2023-07-20T01:31:13;100996.19;;;14.50;nan
14343;BME280;7255;53.596;9.960;2023-07-20T01:33:40;100994.22;;;14.46;nan
14343;BME280;7255;53.596;9.960;2023-07-20T01:36:07;100991.09;;;14.54;nan
14343;BME280;7255;53.596;9.960;2023-07-20T01:38:35;100982.31;;;14.58;nan
14343;BME280;7255;53.596;9.960;2023-07-20T01:41:02;100987.34;;;14.55;nan
14343;BME280;7255;53.596;9.960;2023-07-20T01:43:29;100987.09;;;14.56;nan
14343;BME280;7255;53.596;9.960;2023-07-20T01:45:55;100974.06;;;14.53;nan
14343;BME280;7255;53.596;9.960;2023-07-20T01:48:23;100978.53;;;14.59;nan
14343;BME280;7255;53.596;9.960;2023-07-20T01:50:50;100982.97;;;14.66;nan
14343;BME280;7255;53.596;9.960;2023-07-20T01:53:16;100978.69;;;14.70;nan
14343;BME280;7255;53.596;9.960;2023-07-20T01:55:42;100984.78;;;14.60;nan
14343;BME280;7255;53.596;9.960;2023-07-20T01:58:08;100980.66;;;14.57;nan
14343;BME280;7255;53.596;9.960;2023-07-20T02:00:37;100984.25;;;14.63;nan
14343;BME280;7255;53.596;9.960;2023-07-20T02:03:03;100991.00;;;14.60;nan
14343;BME280;7255;53.596;9.960;2023-07-20T02:05:31;100987.53;;;14.65;nan
14343;BME280;7255;53.596;9.960;2023-07-20T02:07:57;100989.19;;;14.66;nan
14343;BME280;7255;53.596;9.960;2023-07-20T02:10:23;100989.16;;;14.49;nan
14343;BME280;7255;53.596;9.960;2023-07-20T02:12:50;100984.06;;;14.53;nan
14343;BME280;7255;53.596;9.960;2023-07-20T02:15:17;100990.44;;;14.47;nan
14343;BME280;7255;53.596;9.960;2023-07-20T02:17:44;100991.75;;;14.44;nan
14343;BME280;7255;53.596;9.960;2023-07-20T02:20:10;101005.72;;;14.53;nan
14343;BME280;7255;53.596;9.960;2023-07-20T02:22:39;100994.03;;;14.52;nan
14343;BME280;7255;53.596;9.960;2023-07-20T02:25:07;100997.31;;;14.37;nan
14343;BME280;7255;53.596;9.960;2023-07-20T02:27:33;100994.56;;;14.49;nan
14343;BME280;7255;53.596;9.960;2023-07-20T02:30:00;100994.16;;;14.57;nan
14343;BME280;7255;53.596;9.960;2023-07-20T02:32:27;100997.34;;;14.54;nan
14343;BME280;7255;53.596;9.960;2023-07-20T02:34:54;101001.59;;;14.50;nan
14343;BME280;7255;53.596;9.960;2023-07-20T02:37:20;101002.75;;;14.54;nan
14343;BME280;7255;53.596;9.960;2023-07-20T02:39:48;101007.00;;;14.50;nan
14343;BME280;7255;53.596;9.960;2023-07-20T02:42:14;101000.28;;;14.53;nan
14343;BME280;7255;53.596;9.960;2023-07-20T02:44:41;101009.31;;;14.41;nan
14343;BME280;7255;53.596;9.960;2023-07-20T02:47:07;101010.44;;;14.46;nan
14343;BME280;7255;53.596;9.960;2023-07-20T02:49:34;101006.31;;;14.43;nan
14343;BME280;7255;53.596;9.960;2023-07-20T02:52:00;101005.03;;;14.46;nan
14343;BME280;7255;53.596;9.960;2023-07-20T02:54:26;101012.72;;;14.37;nan
14343;BME280;7255;53.596;9.960;2023-07-20T02:56:54;101001.91;;;14.37;nan
14343;BME280;7255;53.596;9.960;2023-07-20T02:59:20;101007.78;;;14.34;nan
14343;BME280;7255;53.596;9.960;2023-07-20T03:01:47;101000.19;;;14.31;nan
14343;BME280;7255;53.596;9.960;2023-07-20T03:04:13;100986.16;;;14.34;nan
14343;BME280;7255;53.596;9.960;2023-07-20T03:06:41;100996.50;;;14.37;nan
14343;BME280;7255;53.596;9.960;2023-07-20T03:09:07;101000.25;;;14.36;nan
14343;BME280;7255;53.596;9.960;2023-07-20T03:11:34;101013.69;;;14.31;nan
14343;BME280;7255;53.596;9.960;2023-07-20T03:14:02;101000.25;;;14.36;nan
14343;BME280;7255;53.596;9.960;2023-07-20T03:16:28;101003.56;;;14.38;nan
14343;BME280;7255;53.596;9.960;2023-07-20T03:18:57;100999.09;;;14.32;nan
14343;BME280;7255;53.596;9.960;2023-07-20T03:21:24;101017.94;;;14.27;nan
14343;BME280;7255;53.596;9.960;2023-07-20T03:23:50;101020.06;;;14.24;nan
14343;BME280;7255;53.596;9.960;2023-07-20T03:26:17;101022.19;;;14.22;nan
14343;BME280;7255;53.596;9.960;2023-07-20T03:28:43;101020.56;;;14.21;nan
14343;BME280;7255;53.596;9.960;2023-07-20T03:31:10;101015.16;;;14.21;nan
14343;BME280;7255;53.596;9.960;2023-07-20T03:33:37;101007.13;;;14.27;nan
14343;BME280;7255;53.596;9.960;2023-07-20T03:36:03;101008.75;;;14.28;nan
14343;BME280;7255;53.596;9.960;2023-07-20T03:38:30;101008.75;;;14.28;nan
14343;BME280;7255;53.596;9.960;2023-07-20T03:40:58;101010.25;;;14.35;nan
14343;BME280;7255;53.596;9.960;2023-07-20T03:43:26;101014.84;;;14.35;nan
14343;BME280;7255;53.596;9.960;2023-07-20T03:45:53;101014.81;;;14.18;nan
14343;BME280;7255;53.596;9.960;2023-07-20T03:48:22;101025.97;;;14.21;nan
14343;BME280;7255;53.596;9.960;2023-07-20T03:50:50;101009.87;;;14.15;nan
14343;BME280;7255;53.596;9.960;2023-07-20T03:53:17;101013.84;;;14.24;nan
14343;BME280;7255;53.596;9.960;2023-07-20T03:55:44;101009.75;;;14.21;nan
14343;BME280;7255;53.596;9.960;2023-07-20T03:58:11;101017.25;;;14.19;nan
14343;BME280;7255;53.596;9.960;2023-07-20T04:00:37;101023.00;;;14.23;nan
14343;BME280;7255;53.596;9.960;2023-07-20T04:03:04;101016.87;;;14.28;nan
14343;BME280;7255;53.596;9.960;2023-07-20T04:05:31;101023.19;;;14.33;nan
14343;BME280;7255;53.596;9.960;2023-07-20T04:07:58;101023.37;;;14.43;nan
14343;BME280;7255;53.596;9.960;2023-07-20T04:10:24;101026.50;;;14.52;nan
14343;BME280;7255;53.596;9.960;2023-07-20T04:12:51;101030.47;;;14.61;nan
14343;BME280;7255;53.596;9.960;2023-07-20T04:15:17;101041.78;;;14.58;nan
14343;BME280;7255;53.596;9.960;2023-07-20T04:17:44;101031.09;;;14.52;nan
14343;BME280;7255;53.596;9.960;2023-07-20T04:20:11;101030.25;;;14.34;nan
14343;BME280;7255;53.596;9.960;2023-07-20T04:22:38;101036.63;;;14.45;nan
14343;BME280;7255;53.596;9.960;2023-07-20T04:25:05;101042.38;;;14.49;nan
14343;BME280;7255;53.596;9.960;2023-07-20T04:27:31;101042.56;;;14.42;nan
14343;BME280;7255;53.596;9.960;2023-07-20T04:29:58;101036.47;;;14.35;nan
14343;BME280;7255;53.596;9.960;2023-07-20T04:32:25;101041.88;;;14.35;nan
14343;BME280;7255;53.596;9.960;2023-07-20T04:34:51;101031.50;;;14.43;nan
14343;BME280;7255;53.596;9.960;2023-07-20T04:37:17;101033.87;;;14.40;nan
14343;BME280;7255;53.596;9.960;2023-07-20T04:39:45;101040.63;;;14.54;nan
14343;BME280;7255;53.596;9.960;2023-07-20T04:42:12;101044.59;;;14.63;nan
14343;BME280;7255;53.596;9.960;2023-07-20T04:44:38;101046.69;;;14.61;nan
14343;BME280;7255;53.596;9.960;2023-07-20T04:47:05;101048.13;;;14.52;nan
14343;BME280;7255;53.596;9.960;2023-07-20T04:49:31;101040.75;;;14.48;nan
14343;BME280;7255;53.596;9.960;2023-07-20T04:51:57;101039.09;;;14.47;nan
14343;BME280;7255;53.596;9.960;2023-07-20T04:54:23;101040.63;;;14.54;nan
14343;BME280;7255;53.596;9.960;2023-07-20T04:56:53;101035.34;;;14.48;nan
14343;BME280;7255;53.596;9.960;2023-07-20T04:59:19;101038.84;;;14.77;nan
14343;BME280;7255;53.596;9.960;2023-07-20T05:01:46;101042.28;;;14.72;nan
14343;BME280;7255;53.596;9.960;2023-07-20T05:04:12;101039.81;;;14.71;nan
14343;BME280;7255;53.596;9.960;2023-07-20T05:06:39;101043.94;;;14.73;nan
14343;BME280;7255;53.596;9.960;2023-07-20T05:09:05;101048.34;;;14.96;nan
14343;BME280;7255;53.596;9.960;2023-07-20T05:11:33;101044.94;;;15.01;nan
14343;BME280;7255;53.596;9.960;2023-07-20T05:14:00;101039.00;;;14.87;nan
14343;BME280;7255;53.596;9.960;2023-07-20T05:16:27;101034.41;;;14.71;nan
14343;BME280;7255;53.596;9.960;2023-07-20T05:18:53;101033.84;;;14.69;nan
14343;BME280;7255;53.596;9.960;2023-07-20T05:21:19;101039.66;;;14.60;nan
14343;BME280;7255;53.596;9.960;2023-07-20T05:23:46;101039.66;;;14.60;nan
14343;BME280;7255;53.596;9.960;2023-07-20T05:26:12;101043.28;;;14.66;nan
14343;BME280;7255;53.596;9.960;2023-07-20T05:28:38;101041.47;;;14.72;nan
14343;BME280;7255;53.596;9.960;2023-07-20T05:31:06;101044.41;;;14.70;nan
14343;BME280;7255;53.596;9.960;2023-07-20T05:33:32;101038.00;;;14.59;nan
14343;BME280;7255;53.596;9.960;2023-07-20T05:35:59;101034.91;;;14.68;nan
14343;BME280;7255;53.596;9.960;2023-07-20T05:38:25;101032.97;;;14.80;nan
14343;BME280;7255;53.596;9.960;2023-07-20T05:40:51;101040.00;;;14.81;nan
14343;BME280;7255;53.596;9.960;2023-07-20T05:43:17;101039.34;;;14.74;nan
14343;BME280;7255;53.596;9.960;2023-07-20T05:45:44;101036.25;;;14.82;nan
14343;BME280;7255;53.596;9.960;2023-07-20T05:48:14;101045.91;;;14.95;nan
14343;BME280;7255;53.596;9.960;2023-07-20T05:50:42;101031.47;;;15.06;nan
14343;BME280;7255;53.596;9.960;2023-07-20T05:53:09;101039.69;;;15.11;nan
14343;BME280;7255;53.596;9.960;2023-07-20T05:55:35;101037.22;;;15.10;nan
14343;BME280;7255;53.596;9.960;2023-07-20T05:58:01;101042.84;;;15.25;nan
14343;BME280;7255;53.596;9.960;2023-07-20T06:00:29;101047.00;;;15.33;nan
14343;BME280;7255;53.596;9.960;2023-07-20T06:02:55;101037.50;;;15.30;nan
14343;BME280;7255;53.596;9.960;2023-07-20T06:05:23;101042.72;;;15.54;nan
14343;BME280;7255;53.596;9.960;2023-07-20T06:07:49;101046.28;;;15.76;nan
14343;BME280;7255;53.596;9.960;2023-07-20T06:10:16;101047.75;;;15.67;nan
14343;BME280;7255;53.596;9.960;2023-07-20T06:12:42;101045.50;;;15.59;nan
14343;BME280;7255;53.596;9.960;2023-07-20T06:15:24;101039.56;;;15.62;nan
14343;BME280;7255;53.596;9.960;2023-07-20T06:17:50;101047.41;;;15.81;nan
14343;BME280;7255;53.596;9.960;2023-07-20T06:20:17;101055.81;;;15.79;nan
14343;BME280;7255;53.596;9.960;2023-07-20T06:22:45;101052.06;;;15.63;nan
14343;BME280;7255;53.596;9.960;2023-07-20T06:25:11;101057.44;;;15.80;nan
14343;BME280;7255;53.596;9.960;2023-07-20T06:27:38;101058.25;;;15.81;nan
14343;BME280;7255;53.596;9.960;2023-07-20T06:30:05;101058.88;;;15.88;nan
14343;BME280;7255;53.596;9.960;2023-07-20T06:32:32;101060.16;;;16.02;nan
14343;BME280;7255;53.596;9.960;2023-07-20T06:34:58;101058.13;;;16.14;nan
14343;BME280;7255;53.596;9.960;2023-07-20T06:37:24;101061.22;;;16.23;nan
14343;BME280;7255;53.596;9.960;2023-07-20T06:39:52;101066.09;;;16.26;nan
14343;BME280;7255;53.596;9.960;2023-07-20T06:42:18;101063.87;;;16.18;nan
14343;BME280;7255;53.596;9.960;2023-07-20T06:44:45;101061.31;;;16.33;nan
14343;BME280;7255;53.596;9.960;2023-07-20T06:47:11;101052.69;;;16.36;nan
14343;BME280;7255;53.596;9.960;2023-07-20T06:49:37;101053.53;;;16.42;nan
14343;BME280;7255;53.596;9.960;2023-07-20T06:52:04;101063.78;;;16.35;nan
14343;BME280;7255;53.596;9.960;2023-07-20T06:54:31;101054.56;;;16.36;nan
14343;BME280;7255;53.596;9.960;2023-07-20T06:56:58;101062.25;;;16.44;nan
14343;BME280;7255;53.596;9.960;2023-07-20T06:59:25;101056.59;;;16.24;nan
14343;BME280;7255;53.596;9.960;2023-07-20T07:01:52;101061.28;;;16.06;nan
14343;BME280;7255;53.596;9.960;2023-07-20T07:04:18;101059.47;;;16.12;nan
14343;BME280;7255;53.596;9.960;2023-07-20T07:06:44;101063.47;;;16.31;nan
14343;BME280;7255;53.596;9.960;2023-07-20T07:09:11;101060.50;;;16.33;nan
14343;BME280;7255;53.596;9.960;2023-07-20T07:11:37;101062.78;;;16.41;nan
14343;BME280;7255;53.596;9.960;2023-07-20T07:14:05;101059.59;;;16.49;nan
14343;BME280;7255;53.596;9.960;2023-07-20T07:16:31;101051.69;;;16.48;nan
14343;BME280;7255;53.596;9.960;2023-07-20T07:18:57;101056.59;;;16.78;nan
14343;BME280;7255;53.596;9.960;2023-07-20T07:21:24;101060.56;;;16.98;nan
14343;BME280;7255;53.596;9.960;2023-07-20T07:23:51;101061.19;;;17.05;nan
14343;BME280;7255;53.596;9.960;2023-07-20T07:26:22;101060.75;;;17.18;nan
14343;BME280;7255;53.596;9.960;2023-07-20T07:28:48;101058.13;;;17.34;nan
14343;BME280;7255;53.596;9.960;2023-07-20T07:31:16;101058.50;;;17.47;nan
14343;BME280;7255;53.596;9.960;2023-07-20T07:33:43;101063.03;;;17.37;nan
14343;BME280;7255;53.596;9.960;2023-07-20T07:36:09;101072.41;;;17.19;nan
14343;BME280;7255;53.596;9.960;2023-07-20T07:38:35;101077.16;;;16.74;nan
14343;BME280;7255;53.596;9.960;2023-07-20T07:41:02;101070.00;;;16.35;nan
14343;BME280;7255;53.596;9.960;2023-07-20T07:43:29;101068.56;;;16.28;nan
14343;BME280;7255;53.596;9.960;2023-07-20T07:45:55;101067.94;;;16.21;nan
14343;BME280;7255;53.596;9.960;2023-07-20T07:48:23;101064.25;;;16.27;nan
14343;BME280;7255;53.596;9.960;2023-07-20T07:50:50;101069.31;;;16.45;nan
14343;BME280;7255;53.596;9.960;2023-07-20T07:53:17;101066.25;;;16.64;nan
14343;BME280;7255;53.596;9.960;2023-07-20T07:55:43;101081.37;;;16.87;nan
14343;BME280;7255;53.596;9.960;2023-07-20T07:58:09;101078.22;;;16.95;nan
14343;BME280;7255;53.596;9.960;2023-07-20T08:00:36;101081.78;;;17.01;nan
14343;BME280;7255;53.596;9.960;2023-07-20T08:03:02;101075.94;;;16.87;nan
14343;BME280;7255;53.596;9.960;2023-07-20T08:05:30;101088.00;;;16.74;nan
14343;BME280;7255;53.596;9.960;2023-07-20T08:07:56;101082.41;;;16.81;nan
14343;BME280;7255;53.596;9.960;2023-07-20T08:10:22;101086.00;;;16.86;nan
14343;BME280;7255;53.596;9.960;2023-07-20T08:12:49;101088.75;;;16.91;nan
14343;BME280;7255;53.596;9.960;2023-07-20T08:15:16;101088.97;;;16.85;nan
14343;BME280;7255;53.596;9.960;2023-07-20T08:17:42;101078.00;;;17.02;nan
14343;BME280;7255;53.596;9.960;2023-07-20T08:20:10;101082.53;;;17.28;nan
14343;BME280;7255;53.596;9.960;2023-07-20T08:22:38;101080.44;;;17.41;nan
14343;BME280;7255;53.596;9.960;2023-07-20T08:25:05;101087.22;;;17.38;nan
14343;BME280;7255;53.596;9.960;2023-07-20T08:27:32;101082.53;;;17.28;nan
14343;BME280;7255;53.596;9.960;2023-07-20T08:29:58;101082.97;;;17.15;nan
14343;BME280;7255;53.596;9.960;2023-07-20T08:32:25;101083.03;;;17.25;nan
14343;BME280;7255;53.596;9.960;2023-07-20T08:34:51;101083.03;;;17.25;nan
14343;BME280;7255;53.596;9.960;2023-07-20T08:37:18;101082.59;;;17.39;nan
14343;BME280;7255;53.596;9.960;2023-07-20T08:39:45;101085.41;;;17.54;nan
14343;BME280;7255;53.596;9.960;2023-07-20T08:42:12;101091.53;;;17.82;nan
14343;BME280;7255;53.596;9.960;2023-07-20T08:44:41;101111.94;;;17.84;nan
14343;BME280;7255;53.596;9.960;2023-07-20T08:47:10;101107.53;;;17.30;nan
14343;BME280;7255;53.596;9.960;2023-07-20T08:49:37;101096.34;;;16.89;nan
14343;BME280;7255;53.596;9.960;2023-07-20T08:52:06;101096.53;;;16.55;nan
14343;BME280;7255;53.596;9.960;2023-07-20T08:54:33;101110.38;;;16.54;nan
14343;BME280;7255;53.596;9.960;2023-07-20T08:57:03;101103.88;;;16.33;nan
14343;BME280;7255;53.596;9.960;2023-07-20T08:59:31;101106.34;;;16.34;nan
14343;BME280;7255;53.596;9.960;2023-07-20T09:01:59;101089.88;;;16.41;nan
14343;BME280;7255;53.596;9.960;2023-07-20T09:04:26;101093.16;;;16.43;nan
14343;BME280;7255;53.596;9.960;2023-07-20T09:06:53;101107.91;;;16.52;nan
14343;BME280;7255;53.596;9.960;2023-07-20T09:09:19;101101.34;;;16.75;nan
14343;BME280;7255;53.596;9.960;2023-07-20T09:11:47;101108.41;;;17.04;nan
14343;BME280;7255;53.596;9.960;2023-07-20T09:14:16;101101.28;;;17.30;nan
14343;BME280;7255;53.596;9.960;2023-07-20T09:16:49;101093.19;;;17.35;nan
14343;BME280;7255;53.596;9.960;2023-07-20T09:19:16;101105.28;;;17.60;nan
14343;BME280;7255;53.596;9.960;2023-07-20T09:21:44;101114.47;;;17.96;nan
14343;BME280;7255;53.596;9.960;2023-07-20T09:24:12;101099.84;;;18.07;nan
14343;BME280;7255;53.596;9.960;2023-07-20T09:26:41;101115.47;;;17.05;nan
14343;BME280;7255;53.596;9.960;2023-07-20T09:29:08;101133.25;;;15.97;nan
14343;BME280;7255;53.596;9.960;2023-07-20T09:31:35;101120.91;;;15.67;nan
14343;BME280;7255;53.596;9.960;2023-07-20T09:34:02;101119.84;;;15.51;nan
14343;BME280;7255;53.596;9.960;2023-07-20T09:36:28;101123.47;;;15.57;nan
14343;BME280;7255;53.596;9.960;2023-07-20T09:38:58;101129.06;;;15.33;nan
14343;BME280;7255;53.596;9.960;2023-07-20T09:41:25;101125.13;;;15.41;nan
14343;BME280;7255;53.596;9.960;2023-07-20T09:43:52;101125.44;;;15.45;nan
14343;BME280;7255;53.596;9.960;2023-07-20T09:46:19;101122.16;;;15.59;nan
14343;BME280;7255;53.596;9.960;2023-07-20T09:48:52;101125.25;;;15.68;nan
14343;BME280;7255;53.596;9.960;2023-07-20T09:51:20;101119.00;;;15.68;nan
14343;BME280;7255;53.596;9.960;2023-07-20T09:53:48;101117.69;;;15.87;nan
14343;BME280;7255;53.596;9.960;2023-07-20T09:56:16;101115.37;;;15.96;nan
14343;BME280;7255;53.596;9.960;2023-07-20T09:58:42;101127.28;;;16.17;nan
14343;BME280;7255;53.596;9.960;2023-07-20T10:01:11;101112.34;;;16.14;nan
14343;BME280;7255;53.596;9.960;2023-07-20T10:03:41;101113.59;;;16.29;nan
14343;BME280;7255;53.596;9.960;2023-07-20T10:06:13;101104.75;;;16.39;nan
14343;BME280;7255;53.596;9.960;2023-07-20T10:08:42;101109.69;;;16.69;nan
14343;BME280;7255;53.596;9.960;2023-07-20T10:11:09;101106.38;;;16.89;nan
14343;BME280;7255;53.596;9.960;2023-07-20T10:13:38;101109.62;;;17.18;nan
14343;BME280;7255;53.596;9.960;2023-07-20T10:16:08;101095.09;;;17.35;nan
14343;BME280;7255;53.596;9.960;2023-07-20T10:18:41;101106.12;;;17.60;nan
14343;BME280;7255;53.596;9.960;2023-07-20T10:21:11;101119.91;;;17.96;nan
14343;BME280;7255;53.596;9.960;2023-07-20T10:23:38;101106.97;;;18.19;nan
14343;BME280;7255;53.596;9.960;2023-07-20T10:26:05;101107.50;;;18.26;nan
14343;BME280;7255;53.596;9.960;2023-07-20T10:28:33;101115.69;;;18.21;nan
14343;BME280;7255;53.596;9.960;2023-07-20T10:31:00;101119.38;;;17.99;nan
14343;BME280;7255;53.596;9.960;2023-07-20T10:33:26;101113.44;;;18.13;nan
14343;BME280;7255;53.596;9.960;2023-07-20T10:35:54;101098.78;;;18.14;nan
14343;BME280;7255;53.596;9.960;2023-07-20T10:38:38;101100.44;;;18.25;nan
14343;BME280;7255;53.596;9.960;2023-07-20T10:41:04;101112.50;;;18.60;nan
14343;BME280;7255;53.596;9.960;2023-07-20T10:43:42;101113.31;;;18.60;nan
14343;BME280;7255;53.596;9.960;2023-07-20T10:46:10;101112.31;;;18.87;nan
14343;BME280;7255;53.596;9.960;2023-07-20T10:49:01;101122.41;;;19.07;nan
14343;BME280;7255;53.596;9.960;2023-07-20T10:51:29;101114.22;;;18.81;nan
14343;BME280;7255;53.596;9.960;2023-07-20T10:53:55;101116.00;;;17.77;nan
14343;BME280;7255;53.596;9.960;2023-07-20T10:56:26;101107.72;;;17.61;nan
14343;BME280;7255;53.596;9.960;2023-07-20T10:58:56;101129.25;;;17.30;nan
14343;BME280;7255;53.596;9.960;2023-07-20T11:01:27;101115.13;;;17.28;nan
14343;BME280;7255;53.596;9.960;2023-07-20T11:03:57;101116.91;;;17.50;nan
14343;BME280;7255;53.596;9.960;2023-07-20T11:06:33;101117.50;;;18.05;nan
14343;BME280;7255;53.596;9.960;2023-07-20T11:09:05;101114.03;;;18.20;nan
14343;BME280;7255;53.596;9.960;2023-07-20T11:11:34;101129.44;;;17.99;nan
14343;BME280;7255;53.596;9.960;2023-07-20T11:14:02;101131.72;;;17.69;nan
14343;BME280;7255;53.596;9.960;2023-07-20T11:16:40;101140.28;;;17.51;nan
14343;BME280;7255;53.596;9.960;2023-07-20T11:19:14;101143.00;;;17.56;nan
14343;BME280;7255;53.596;9.960;2023-07-20T11:21:44;101144.34;;;17.91;nan
14343;BME280;7255;53.596;9.960;2023-07-20T11:24:11;101150.12;;;18.05;nan
14343;BME280;7255;53.596;9.960;2023-07-20T11:26:42;101130.69;;;18.44;nan
14343;BME280;7255;53.596;9.960;2023-07-20T11:29:09;101131.53;;;18.55;nan
14343;BME280;7255;53.596;9.960;2023-07-20T11:31:37;101147.91;;;18.65;nan
14343;BME280;7255;53.596;9.960;2023-07-20T11:34:03;101138.16;;;18.79;nan
14343;BME280;7255;53.596;9.960;2023-07-20T11:36:30;101148.50;;;18.82;nan
14343;BME280;7255;53.596;9.960;2023-07-20T11:38:58;101140.88;;;18.84;nan
14343;BME280;7255;53.596;9.960;2023-07-20T11:41:25;101140.06;;;18.84;nan
14343;BME280;7255;53.596;9.960;2023-07-20T11:43:52;101135.16;;;18.81;nan
14343;BME280;7255;53.596;9.960;2023-07-20T11:46:18;101138.66;;;18.76;nan
14343;BME280;7255;53.596;9.960;2023-07-20T11:48:44;101144.94;;;18.77;nan
14343;BME280;7255;53.596;9.960;2023-07-20T11:51:13;101134.25;;;18.50;nan
14343;BME280;7255;53.596;9.960;2023-07-20T11:53:40;101128.84;;;18.60;nan
14343;BME280;7255;53.596;9.960;2023-07-20T11:56:07;101126.72;;;18.82;nan
14343;BME280;7255;53.596;9.960;2023-07-20T11:58:34;101136.25;;;18.95;nan
14343;BME280;7255;53.596;9.960;2023-07-20T12:01:00;101132.19;;;19.03;nan
14343;BME280;7255;53.596;9.960;2023-07-20T12:03:27;101124.28;;;19.32;nan
14343;BME280;7255;53.596;9.960;2023-07-20T12:05:53;101127.31;;;19.31;nan
14343;BME280;7255;53.596;9.960;2023-07-20T12:08:20;101134.28;;;19.93;nan
14343;BME280;7255;53.596;9.960;2023-07-20T12:10:48;101132.78;;;20.27;nan
14343;BME280;7255;53.596;9.960;2023-07-20T12:13:16;101133.72;;;20.62;nan
14343;BME280;7255;53.596;9.960;2023-07-20T12:15:43;101153.69;;;20.47;nan
14343;BME280;7255;53.596;9.960;2023-07-20T12:18:09;101132.63;;;20.03;nan
14343;BME280;7255;53.596;9.960;2023-07-20T12:20:37;101145.63;;;20.21;nan
14343;BME280;7255;53.596;9.960;2023-07-20T12:23:04;101142.94;;;20.16;nan
14343;BME280;7255;53.596;9.960;2023-07-20T12:25:37;101151.91;;;20.22;nan
14343;BME280;7255;53.596;9.960;2023-07-20T12:28:05;101145.87;;;20.35;nan
14343;BME280;7255;53.596;9.960;2023-07-20T12:30:33;101157.06;;;20.28;nan
14343;BME280;7255;53.596;9.960;2023-07-20T12:32:59;101154.78;;;19.75;nan
14343;BME280;7255;53.596;9.960;2023-07-20T12:35:24;101147.19;;;19.36;nan
14343;BME280;7255;53.596;9.960;2023-07-20T12:37:51;101139.53;;;19.33;nan
14343;BME280;7255;53.596;9.960;2023-07-20T12:40:18;101140.91;;;19.56;nan
14343;BME280;7255;53.596;9.960;2023-07-20T12:42:45;101142.22;;;19.85;nan
14343;BME280;7255;53.596;9.960;2023-07-20T12:45:11;101143.88;;;19.75;nan
14343;BME280;7255;53.596;9.960;2023-07-20T12:47:40;101143.00;;;19.95;nan
14343;BME280;7255;53.596;9.960;2023-07-20T12:50:07;101140.28;;;19.90;nan
14343;BME280;7255;53.596;9.960;2023-07-20T12:52:36;101149.59;;;19.89;nan
14343;BME280;7255;53.596;9.960;2023-07-20T12:55:03;101136.06;;;20.29;nan
14343;BME280;7255;53.596;9.960;2023-07-20T12:57:29;101148.78;;;20.49;nan
14343;BME280;7255;53.596;9.960;2023-07-20T12:59:55;101139.28;;;20.41;nan
14343;BME280;7255;53.596;9.960;2023-07-20T13:02:22;101147.34;;;20.67;nan
14343;BME280;7255;53.596;9.960;2023-07-20T13:04:49;101140.75;;;20.73;nan
14343;BME280;7255;53.596;9.960;2023-07-20T13:07:16;101134.22;;;21.08;nan
14343;BME280;7255;53.596;9.960;2023-07-20T13:09:42;101148.22;;;21.02;nan
14343;BME280;7255;53.596;9.960;2023-07-20T13:12:08;101141.81;;;20.77;nan
14343;BME280;7255;53.596;9.960;2023-07-20T13:14:34;101148.75;;;20.54;nan
14343;BME280;7255;53.596;9.960;2023-07-20T13:17:01;101140.09;;;20.42;nan
14343;BME280;7255;53.596;9.960;2023-07-20T13:19:27;101135.28;;;20.73;nan
14343;BME280;7255;53.596;9.960;2023-07-20T13:21:55;101147.69;;;20.50;nan
14343;BME280;7255;53.596;9.960;2023-07-20T13:24:21;101157.94;;;20.18;nan